Jarcevo, Russia
Current Conditions -  °F | °C
As of 1:30 AM on Saturday 01 Nov 2014 (Local Time) from UNKL Reporting Station
Overcast Overcast  
Wind Chill: 27°   Ceiling: 2800
Heat Index: 34°   Visibility: 6mi
Dew Point: 28°   Wind: 9mph
Humidity: 81%   Direction: 250°WSW
Pressure: 30.18"   Gusts: NA
Location:  60.25°N, 90.23°E
Report Text: UNKL 311830Z 25004MPS 9999 BKN028CB OVC083 01/M02 Q1022 NOSIGRMK QFE740 29////39
Loading
Personal Weather Stations






























Interactive Weather Map
Tropical Storm Tracking
New forecast layout! Learn more

10-Day Weather Forecast

Advertisements
Track Severe Weather on mobile